Time;durP1;ratioP1;P1;durP2;ratioP2;P2;SDS_P1;SDS_P2;PMS_P1;PMS_P2;Temp;Humidity;BMP_temperature;BMP_pressure;BME280_temperature;BME280_humidity;BME280_pressure;Samples;Min_cycle;Max_cycle;Signal;HPM_P1;HPM_P2
2021/10/12 00:01:27;;;;;;;11.63;3.75;;;;;;;;;;5039913;28;20585;-65
2021/10/12 00:03:53;;;;;;;11.48;4.28;;;;;;;;;;5058915;28;20055;-65
2021/10/12 00:06:20;;;;;;;13.10;3.75;;;;;;;;;;5041056;28;20052;-64
2021/10/12 00:08:46;;;;;;;10.48;3.60;;;;;;;;;;5052638;28;20083;-65
2021/10/12 00:11:12;;;;;;;12.23;3.65;;;;;;;;;;5055905;28;20056;-65
2021/10/12 00:13:39;;;;;;;7.40;3.20;;;;;;;;;;5044010;28;20115;-65
2021/10/12 00:16:05;;;;;;;10.07;3.53;;;;;;;;;;5046765;28;20386;-65
2021/10/12 00:18:32;;;;;;;9.52;3.35;;;;;;;;;;5037449;28;20049;-65
2021/10/12 00:20:58;;;;;;;11.57;3.42;;;;;;;;;;5045968;28;20052;-65
2021/10/12 00:23:25;;;;;;;8.32;3.00;;;;;;;;;;5058269;28;20425;-65
2021/10/12 00:25:51;;;;;;;10.73;2.92;;;;;;;;;;5049823;28;20328;-65
2021/10/12 00:28:17;;;;;;;14.80;3.30;;;;;;;;;;5057865;28;20045;-65
2021/10/12 00:30:44;;;;;;;10.32;2.70;;;;;;;;;;5045374;28;20048;-65
2021/10/12 00:33:10;;;;;;;7.95;2.45;;;;;;;;;;5046939;28;20075;-65
2021/10/12 00:35:37;;;;;;;16.75;3.25;;;;;;;;;;5042471;28;20105;-65
2021/10/12 00:38:03;;;;;;;15.70;3.60;;;;;;;;;;5050259;28;20056;-65
2021/10/12 00:40:29;;;;;;;7.30;2.33;;;;;;;;;;5053408;28;20063;-65
2021/10/12 00:42:56;;;;;;;8.82;2.30;;;;;;;;;;5052509;28;20052;-65
2021/10/12 00:45:24;;;;;;;11.40;3.28;;;;;;;;;;5053099;28;20056;-65
2021/10/12 00:47:54;;;;;;;9.70;2.80;;;;;;;;;;5041586;28;20049;-66
2021/10/12 00:50:20;;;;;;;13.18;2.45;;;;;;;;;;5050573;28;20135;-65
2021/10/12 00:52:47;;;;;;;12.80;2.50;;;;;;;;;;5055557;28;20052;-65
2021/10/12 00:55:13;;;;;;;9.45;2.38;;;;;;;;;;5052674;28;20044;-65
2021/10/12 00:57:40;;;;;;;8.07;2.33;;;;;;;;;;5054498;28;20049;-65
2021/10/12 01:00:06;;;;;;;6.93;2.97;;;;;;;;;;5045964;28;20048;-65
2021/10/12 01:02:34;;;;;;;10.63;2.60;;;;;;;;;;5047131;28;20430;-65
2021/10/12 01:05:00;;;;;;;7.63;2.27;;;;;;;;;;5042340;28;20071;-65
2021/10/12 01:07:27;;;;;;;12.32;2.72;;;;;;;;;;5058823;28;20048;-65
2021/10/12 01:09:53;;;;;;;10.63;2.85;;;;;;;;;;5054511;28;20059;-65
2021/10/12 01:12:20;;;;;;;9.38;2.38;;;;;;;;;;5056197;28;20052;-65
2021/10/12 01:14:46;;;;;;;10.65;2.70;;;;;;;;;;5043205;28;20068;-65
2021/10/12 01:17:12;;;;;;;7.68;2.67;;;;;;;;;;5043972;28;20610;-66
2021/10/12 01:19:39;;;;;;;10.50;2.70;;;;;;;;;;5059365;28;20414;-65
2021/10/12 01:22:05;;;;;;;10.45;2.92;;;;;;;;;;5048436;28;20068;-65
2021/10/12 01:24:32;;;;;;;14.07;3.03;;;;;;;;;;5048178;28;20056;-65
2021/10/12 01:26:58;;;;;;;9.32;2.80;;;;;;;;;;5048623;28;20056;-64
2021/10/12 01:29:24;;;;;;;8.85;2.75;;;;;;;;;;5046952;28;20760;-65
2021/10/12 01:31:51;;;;;;;8.70;2.83;;;;;;;;;;5062404;28;20048;-65
2021/10/12 01:34:18;;;;;;;18.02;3.10;;;;;;;;;;5054761;28;20052;-65
2021/10/12 01:36:45;;;;;;;10.20;3.67;;;;;;;;;;5061016;28;20060;-65
2021/10/12 01:39:12;;;;;;;13.18;3.30;;;;;;;;;;5051555;28;20285;-65
2021/10/12 01:41:38;;;;;;;11.82;2.90;;;;;;;;;;5055716;28;20064;-65
2021/10/12 01:44:05;;;;;;;7.53;2.95;;;;;;;;;;5047550;28;20612;-65
2021/10/12 01:46:32;;;;;;;9.07;2.70;;;;;;;;;;5044419;28;20415;-65
2021/10/12 01:48:58;;;;;;;11.52;2.75;;;;;;;;;;5063730;28;20044;-65
2021/10/12 01:51:24;;;;;;;14.60;3.50;;;;;;;;;;5057107;28;20395;-65
2021/10/12 01:53:51;;;;;;;12.02;3.10;;;;;;;;;;5056362;28;20501;-65
2021/10/12 01:56:17;;;;;;;12.43;3.45;;;;;;;;;;5051293;28;20048;-65
2021/10/12 01:58:50;;;;;;;10.73;3.03;;;;;;;;;;5041552;28;20153;-65
2021/10/12 02:01:20;;;;;;;7.57;3.47;;;;;;;;;;5054498;28;20295;-65
2021/10/12 02:03:46;;;;;;;8.80;3.47;;;;;;;;;;5049809;28;20540;-65
2021/10/12 02:06:13;;;;;;;9.95;3.17;;;;;;;;;;5063642;28;20048;-65
2021/10/12 02:08:40;;;;;;;9.30;3.50;;;;;;;;;;5055487;28;20052;-65
2021/10/12 02:11:06;;;;;;;10.95;3.55;;;;;;;;;;5059245;28;20045;-65
2021/10/12 02:13:32;;;;;;;8.65;3.40;;;;;;;;;;5048643;28;20057;-65
2021/10/12 02:15:59;;;;;;;14.27;3.78;;;;;;;;;;5062969;28;20047;-65
2021/10/12 02:18:26;;;;;;;12.88;3.55;;;;;;;;;;5037731;28;20067;-65
2021/10/12 02:20:52;;;;;;;12.18;4.07;;;;;;;;;;5059741;28;20052;-65
2021/10/12 02:23:18;;;;;;;8.90;3.55;;;;;;;;;;5054104;28;20068;-65
2021/10/12 02:25:45;;;;;;;12.38;4.43;;;;;;;;;;5049776;28;20138;-66
2021/10/12 02:28:11;;;;;;;18.08;3.75;;;;;;;;;;5059148;28;20564;-65
2021/10/12 02:30:37;;;;;;;10.95;3.58;;;;;;;;;;5051561;28;20064;-65
2021/10/12 02:33:04;;;;;;;13.00;3.83;;;;;;;;;;5061117;28;20059;-65
2021/10/12 02:35:31;;;;;;;10.23;3.25;;;;;;;;;;5053389;28;20044;-65
2021/10/12 02:37:57;;;;;;;15.35;4.38;;;;;;;;;;5060773;28;20051;-65
2021/10/12 02:40:24;;;;;;;10.50;3.83;;;;;;;;;;5059717;28;20113;-65
2021/10/12 02:42:50;;;;;;;12.93;3.90;;;;;;;;;;5046023;28;20560;-65
2021/10/12 02:45:16;;;;;;;10.45;3.60;;;;;;;;;;5062241;28;20052;-65
2021/10/12 02:47:43;;;;;;;10.93;3.72;;;;;;;;;;5057909;28;20052;-65
2021/10/12 02:50:09;;;;;;;11.48;3.42;;;;;;;;;;5059851;28;20532;-65
2021/10/12 02:52:36;;;;;;;15.32;3.40;;;;;;;;;;5061903;28;20048;-66
2021/10/12 02:55:03;;;;;;;14.18;3.67;;;;;;;;;;5053657;28;20049;-65
2021/10/12 02:57:32;;;;;;;9.60;3.05;;;;;;;;;;5063524;28;20048;-65
2021/10/12 02:59:58;;;;;;;;;;;;;;;;;;5035735;28;20052;-65
2021/10/12 03:02:24;;;;;;;14.15;3.03;;;;;;;;;;5051222;28;19978;-66
2021/10/12 03:04:51;;;;;;;10.15;2.97;;;;;;;;;;5053769;28;20048;-65
2021/10/12 03:07:17;;;;;;;10.63;3.30;;;;;;;;;;5051600;28;20493;-65
2021/10/12 03:09:44;;;;;;;12.30;2.80;;;;;;;;;;5048628;28;20044;-66
2021/10/12 03:12:10;;;;;;;8.32;2.28;;;;;;;;;;5058202;28;20095;-65
2021/10/12 03:14:37;;;;;;;9.00;2.90;;;;;;;;;;5059976;28;20055;-66
2021/10/12 03:17:03;;;;;;;11.75;1.90;;;;;;;;;;5040979;28;20049;-65
2021/10/12 03:19:29;;;;;;;8.80;1.60;;;;;;;;;;5055121;28;20064;-66
2021/10/12 03:21:59;;;;;;;10.05;1.95;;;;;;;;;;5040178;28;20044;-65
2021/10/12 03:24:26;;;;;;;16.15;2.50;;;;;;;;;;5062030;28;20036;-66
2021/10/12 03:26:52;;;;;;;9.70;1.98;;;;;;;;;;5050301;28;20052;-66
2021/10/12 03:29:18;;;;;;;8.45;1.80;;;;;;;;;;5061870;28;20047;-65
2021/10/12 03:31:45;;;;;;;15.15;2.17;;;;;;;;;;5051450;28;20045;-67
2021/10/12 03:34:11;;;;;;;6.38;1.95;;;;;;;;;;5050133;28;20048;-65
2021/10/12 03:36:37;;;;;;;5.32;1.42;;;;;;;;;;5053119;28;20053;-65
2021/10/12 03:39:04;;;;;;;6.05;1.70;;;;;;;;;;5053162;28;20055;-65
2021/10/12 03:41:30;;;;;;;13.57;1.75;;;;;;;;;;5056009;28;20511;-65
2021/10/12 03:43:57;;;;;;;8.15;1.48;;;;;;;;;;5054718;28;20060;-64
2021/10/12 03:46:23;;;;;;;10.30;1.50;;;;;;;;;;5049674;28;20421;-65
2021/10/12 03:48:50;;;;;;;5.30;1.15;;;;;;;;;;5047558;28;20053;-65
2021/10/12 03:51:16;;;;;;;6.22;1.40;;;;;;;;;;5041105;28;20088;-65
2021/10/12 03:53:42;;;;;;;6.28;1.67;;;;;;;;;;5053665;28;20048;-65
2021/10/12 03:56:09;;;;;;;9.82;1.95;;;;;;;;;;5043293;28;20564;-66
2021/10/12 03:58:35;;;;;;;7.75;1.25;;;;;;;;;;5052064;28;20044;-65
2021/10/12 04:01:02;;;;;;;6.88;1.42;;;;;;;;;;5042360;28;20154;-65
2021/10/12 04:03:28;;;;;;;10.07;1.73;;;;;;;;;;5052495;28;20060;-65
2021/10/12 04:05:55;;;;;;;7.40;1.17;;;;;;;;;;5063687;28;20053;-66
2021/10/12 04:08:22;;;;;;;9.43;1.40;;;;;;;;;;5053069;28;20105;-66
2021/10/12 04:10:48;;;;;;;5.00;1.80;;;;;;;;;;5069006;28;20417;-65
2021/10/12 04:13:14;;;;;;;7.43;1.73;;;;;;;;;;5055615;28;20048;-65
2021/10/12 04:15:41;;;;;;;7.93;1.35;;;;;;;;;;5058523;28;20083;-65
2021/10/12 04:18:10;;;;;;;5.55;1.30;;;;;;;;;;5056794;28;20048;-66
2021/10/12 04:20:36;;;;;;;5.97;1.00;;;;;;;;;;5060073;28;20045;-65
2021/10/12 04:23:03;;;;;;;6.43;1.48;;;;;;;;;;5062334;28;20044;-66
2021/10/12 04:25:29;;;;;;;3.75;1.15;;;;;;;;;;5058527;28;20068;-65
2021/10/12 04:27:56;;;;;;;5.63;1.30;;;;;;;;;;5064278;28;20052;-65
2021/10/12 04:30:22;;;;;;;6.80;1.30;;;;;;;;;;5047435;28;20509;-65
2021/10/12 04:32:49;;;;;;;6.65;1.70;;;;;;;;;;5048688;28;20052;-66
2021/10/12 04:35:15;;;;;;;8.38;1.48;;;;;;;;;;5053511;28;20049;-65
2021/10/12 04:37:41;;;;;;;5.22;1.35;;;;;;;;;;5057496;28;21024;-65
2021/10/12 04:40:08;;;;;;;7.47;1.58;;;;;;;;;;5061651;28;20782;-65
2021/10/12 04:42:35;;;;;;;8.27;1.50;;;;;;;;;;5049953;28;20052;-65
2021/10/12 04:45:02;;;;;;;6.93;1.50;;;;;;;;;;5049847;28;20049;-65
2021/10/12 04:47:28;;;;;;;8.25;1.85;;;;;;;;;;5054136;28;20051;-65
2021/10/12 04:49:55;;;;;;;5.40;1.73;;;;;;;;;;5055734;28;20052;-66
2021/10/12 04:52:21;;;;;;;6.05;2.15;;;;;;;;;;5048900;28;20052;-65
2021/10/12 04:54:47;;;;;;;8.70;1.83;;;;;;;;;;5060692;28;20433;-66
2021/10/12 04:57:14;;;;;;;7.30;2.47;;;;;;;;;;5056049;28;20059;-65
2021/10/12 04:59:42;;;;;;;7.25;1.70;;;;;;;;;;5051490;28;20053;-65
2021/10/12 05:02:08;;;;;;;9.70;2.03;;;;;;;;;;5062293;28;20052;-65
2021/10/12 05:04:34;;;;;;;5.38;1.80;;;;;;;;;;5055583;28;20048;-65
2021/10/12 05:07:01;;;;;;;8.05;1.98;;;;;;;;;;5061474;28;20079;-65
2021/10/12 05:09:27;;;;;;;5.85;1.63;;;;;;;;;;5055066;28;20110;-64
2021/10/12 05:11:53;;;;;;;9.40;1.85;;;;;;;;;;5049844;28;20044;-65
2021/10/12 05:14:19;;;;;;;10.45;2.17;;;;;;;;;;5056870;28;20059;-65
2021/10/12 05:16:49;;;;;;;5.57;1.63;;;;;;;;;;5041566;28;20531;-65
2021/10/12 05:19:15;;;;;;;10.10;2.83;;;;;;;;;;5063050;28;20394;-66
2021/10/12 05:21:42;;;;;;;6.00;1.63;;;;;;;;;;5042290;28;20064;-65
2021/10/12 05:24:08;;;;;;;6.28;1.90;;;;;;;;;;5062413;28;20734;-65
2021/10/12 05:26:34;;;;;;;4.47;1.63;;;;;;;;;;5055759;28;20063;-66
2021/10/12 05:29:01;;;;;;;9.55;1.90;;;;;;;;;;5061353;28;20056;-65
2021/10/12 05:31:27;;;;;;;10.70;2.03;;;;;;;;;;5064086;28;20520;-65
2021/10/12 05:33:53;;;;;;;7.55;2.63;;;;;;;;;;5053149;28;20464;-65
2021/10/12 05:36:20;;;;;;;7.35;2.10;;;;;;;;;;5047122;28;20045;-65
2021/10/12 05:38:46;;;;;;;6.15;2.10;;;;;;;;;;5050484;28;20048;-65
2021/10/12 05:41:13;;;;;;;10.85;2.08;;;;;;;;;;5041790;28;20048;-65
2021/10/12 05:43:39;;;;;;;6.38;2.15;;;;;;;;;;5063369;28;20499;-65
2021/10/12 05:46:05;;;;;;;12.63;2.45;;;;;;;;;;5043779;28;20084;-65
2021/10/12 05:48:32;;;;;;;6.88;2.55;;;;;;;;;;5060550;28;20685;-65
2021/10/12 05:50:58;;;;;;;7.88;2.80;;;;;;;;;;5045718;28;20048;-65
2021/10/12 06:00:54;;;;;;;6.05;2.25;;;;;;;;;;5058444;28;20465;-65
2021/10/12 06:03:21;;;;;;;6.90;2.50;;;;;;;;;;5050897;28;20060;-65
2021/10/12 06:05:48;;;;;;;8.23;2.75;;;;;;;;;;5033251;28;20486;-65
2021/10/12 06:08:14;;;;;;;6.75;3.25;;;;;;;;;;5026527;28;20680;-65
2021/10/12 06:10:41;;;;;;;8.95;3.22;;;;;;;;;;5025411;28;20057;-65
2021/10/12 06:13:11;;;;;;;6.75;3.40;;;;;;;;;;5037230;28;20055;-66
2021/10/12 06:15:39;;;;;;;10.20;3.55;;;;;;;;;;5032111;28;20060;-65
2021/10/12 06:18:05;;;;;;;8.67;3.70;;;;;;;;;;5041018;28;20048;-65
2021/10/12 06:20:32;;;;;;;10.07;4.22;;;;;;;;;;5023925;28;20572;-65
2021/10/12 06:22:59;;;;;;;11.90;4.15;;;;;;;;;;5039487;28;20067;-65
2021/10/12 06:25:25;;;;;;;9.02;3.67;;;;;;;;;;5014089;28;20053;-65
2021/10/12 06:27:51;;;;;;;9.40;3.97;;;;;;;;;;5043778;28;20052;-65
2021/10/12 06:30:18;;;;;;;8.80;4.65;;;;;;;;;;5031093;28;20473;-65
2021/10/12 06:32:44;;;;;;;12.13;5.20;;;;;;;;;;5035838;28;20050;-66
2021/10/12 06:35:11;;;;;;;12.50;5.88;;;;;;;;;;5030813;28;20061;-65
2021/10/12 06:37:37;;;;;;;13.13;5.68;;;;;;;;;;5033292;28;20045;-65
2021/10/12 06:40:04;;;;;;;9.95;5.40;;;;;;;;;;5024868;28;20064;-65
2021/10/12 06:42:30;;;;;;;11.98;6.00;;;;;;;;;;5034846;28;20699;-65
2021/10/12 06:44:56;;;;;;;11.70;6.85;;;;;;;;;;5033076;28;20541;-65
2021/10/12 06:47:22;;;;;;;11.65;6.70;;;;;;;;;;5033353;28;20065;-65
2021/10/12 06:49:49;;;;;;;13.40;6.90;;;;;;;;;;5032913;28;20490;-65
2021/10/12 06:52:15;;;;;;;14.07;6.82;;;;;;;;;;5045236;28;20072;-65
2021/10/12 06:54:41;;;;;;;20.23;7.57;;;;;;;;;;5026400;28;20053;-65
2021/10/12 06:57:12;;;;;;;13.73;6.28;;;;;;;;;;5042189;28;20520;-65
2021/10/12 06:59:38;;;;;;;11.82;7.22;;;;;;;;;;5007372;28;20111;-65
2021/10/12 07:02:05;;;;;;;12.32;6.72;;;;;;;;;;5032355;28;20048;-65
2021/10/12 07:04:31;;;;;;;14.40;6.53;;;;;;;;;;5028253;28;20065;-65
2021/10/12 07:06:58;;;;;;;11.80;6.57;;;;;;;;;;5027853;28;20567;-66
2021/10/12 07:09:24;;;;;;;11.75;6.88;;;;;;;;;;5029978;28;20096;-65
2021/10/12 07:11:51;;;;;;;12.20;6.53;;;;;;;;;;5030774;28;20070;-65
2021/10/12 07:14:17;;;;;;;15.25;6.82;;;;;;;;;;5031185;28;20044;-65
2021/10/12 07:16:43;;;;;;;13.30;6.78;;;;;;;;;;5026888;28;20497;-65
2021/10/12 07:19:10;;;;;;;15.95;6.53;;;;;;;;;;5013092;28;20379;-65
2021/10/12 07:21:36;;;;;;;10.52;6.07;;;;;;;;;;5038890;28;20067;-65
2021/10/12 07:24:02;;;;;;;14.48;6.88;;;;;;;;;;5031693;28;20064;-66
2021/10/12 07:26:29;;;;;;;14.65;7.18;;;;;;;;;;5038110;28;20420;-65
2021/10/12 07:28:58;;;;;;;15.90;8.30;;;;;;;;;;5027577;28;20563;-65
2021/10/12 07:31:24;;;;;;;15.10;7.72;;;;;;;;;;5036545;28;20049;-66
2021/10/12 07:33:51;;;;;;;14.63;8.13;;;;;;;;;;5026217;28;20127;-65
2021/10/12 07:36:17;;;;;;;14.02;8.05;;;;;;;;;;5037590;28;20133;-66
2021/10/12 07:38:43;;;;;;;18.10;8.07;;;;;;;;;;5036525;28;20057;-66
2021/10/12 07:41:26;;;;;;;14.38;8.15;;;;;;;;;;5053458;28;20109;-66
2021/10/12 07:43:52;;;;;;;13.75;7.90;;;;;;;;;;5039658;28;20052;-65
2021/10/12 07:46:18;;;;;;;15.20;8.65;;;;;;;;;;5050214;28;20089;-66
2021/10/12 07:48:45;;;;;;;18.33;7.45;;;;;;;;;;5047577;28;20052;-66
2021/10/12 07:51:31;;;;;;;15.32;8.07;;;;;;;;;;5053204;28;20045;-66
2021/10/12 07:54:00;;;;;;;15.15;7.50;;;;;;;;;;5044516;28;20056;-66
2021/10/12 07:56:36;;;;;;;18.45;8.13;;;;;;;;;;5056500;28;20520;-65
2021/10/12 07:59:03;;;;;;;11.95;7.45;;;;;;;;;;5051995;28;20520;-66
2021/10/12 08:01:30;;;;;;;13.15;7.40;;;;;;;;;;5060189;28;20075;-66
2021/10/12 08:03:57;;;;;;;14.05;7.43;;;;;;;;;;5040087;28;20391;-65
2021/10/12 08:06:23;;;;;;;11.27;6.80;;;;;;;;;;5060704;28;20508;-66
2021/10/12 08:08:49;;;;;;;10.77;6.88;;;;;;;;;;5031934;28;20053;-67
2021/10/12 08:11:17;;;;;;;14.13;7.43;;;;;;;;;;5055234;28;20084;-66
2021/10/12 08:13:44;;;;;;;13.70;7.55;;;;;;;;;;5044446;28;20431;-65
2021/10/12 08:16:11;;;;;;;14.88;8.13;;;;;;;;;;5059860;28;20056;-66
2021/10/12 08:18:38;;;;;;;9.63;6.57;;;;;;;;;;5060310;28;20056;-65
2021/10/12 08:21:07;;;;;;;18.42;7.28;;;;;;;;;;5054364;28;20049;-66
2021/10/12 08:23:33;;;;;;;12.25;7.05;;;;;;;;;;5055019;28;20045;-66
2021/10/12 08:25:59;;;;;;;14.07;7.80;;;;;;;;;;5048559;28;20060;-65
2021/10/12 08:28:25;;;;;;;14.65;7.30;;;;;;;;;;5057949;28;20048;-65
2021/10/12 08:30:52;;;;;;;13.63;6.90;;;;;;;;;;5057131;28;20405;-65
2021/10/12 08:33:18;;;;;;;12.82;6.50;;;;;;;;;;5061204;28;20045;-65
2021/10/12 08:35:44;;;;;;;11.63;7.03;;;;;;;;;;5061664;28;20162;-65
2021/10/12 08:38:32;;;;;;;15.10;7.50;;;;;;;;;;5041757;28;20040;-65
2021/10/12 08:41:02;;;;;;;16.90;6.15;;;;;;;;;;5059980;28;20641;-65
2021/10/12 08:43:30;;;;;;;13.85;6.55;;;;;;;;;;5045638;28;20048;-65
2021/10/12 08:45:57;;;;;;;12.68;6.50;;;;;;;;;;5062715;28;20559;-65
2021/10/12 08:48:23;;;;;;;11.38;6.25;;;;;;;;;;5042650;28;20053;-65
2021/10/12 08:50:50;;;;;;;13.27;6.15;;;;;;;;;;5055594;28;20048;-64
2021/10/12 08:53:16;;;;;;;17.58;6.30;;;;;;;;;;5053037;28;20446;-65
2021/10/12 08:55:43;;;;;;;17.90;6.72;;;;;;;;;;5058904;28;20064;-65
2021/10/12 08:58:11;;;;;;;13.63;6.15;;;;;;;;;;5050776;28;20052;-65
2021/10/12 09:00:38;;;;;;;18.95;5.90;;;;;;;;;;5054956;28;20067;-66
2021/10/12 09:05:57;;;;;;;14.50;5.85;;;;;;;;;;5051448;28;20491;-65
2021/10/12 09:08:27;;;;;;;15.18;6.47;;;;;;;;;;5046864;28;20056;-65
2021/10/12 09:10:55;;;;;;;12.05;6.60;;;;;;;;;;5061908;28;20059;-65
2021/10/12 09:13:21;;;;;;;13.57;6.38;;;;;;;;;;5053631;28;20805;-65
2021/10/12 09:16:07;;;;;;;16.33;6.90;;;;;;;;;;5064803;28;20485;-65
2021/10/12 09:18:46;;;;;;;14.70;6.88;;;;;;;;;;5028513;28;20477;-65
2021/10/12 09:21:13;;;;;;;10.50;6.13;;;;;;;;;;5053136;28;20045;-65
2021/10/12 09:23:41;;;;;;;14.93;6.93;;;;;;;;;;5042375;28;20045;-65
2021/10/12 09:26:18;;;;;;;14.77;6.82;;;;;;;;;;5059477;28;20132;-65
2021/10/12 09:28:44;;;;;;;15.57;7.43;;;;;;;;;;5044515;28;20045;-65
2021/10/12 09:31:11;;;;;;;12.50;6.28;;;;;;;;;;5055970;28;20048;-65
2021/10/12 09:33:45;;;;;;;12.85;6.90;;;;;;;;;;5049417;28;20041;-65
2021/10/12 09:36:25;;;;;;;14.15;6.45;;;;;;;;;;5054873;28;20428;-65
2021/10/12 09:38:51;;;;;;;16.90;6.50;;;;;;;;;;5057422;28;20413;-65
2021/10/12 09:41:22;;;;;;;13.27;6.47;;;;;;;;;;5051378;28;20049;-65
2021/10/12 09:43:48;;;;;;;12.80;6.95;;;;;;;;;;5053882;28;20405;-65
2021/10/12 09:46:21;;;;;;;16.45;7.40;;;;;;;;;;5052334;28;20048;-65
2021/10/12 09:48:47;;;;;;;13.75;6.72;;;;;;;;;;5057255;28;20059;-65
2021/10/12 09:51:17;;;;;;;15.80;8.05;;;;;;;;;;5051109;28;20048;-65
2021/10/12 09:53:44;;;;;;;13.60;6.53;;;;;;;;;;5049434;28;20052;-65
2021/10/12 09:56:12;;;;;;;16.00;7.80;;;;;;;;;;5056433;28;20469;-65
2021/10/12 09:58:38;;;;;;;18.73;7.32;;;;;;;;;;5041265;28;20063;-65
2021/10/12 10:01:06;;;;;;;16.55;6.28;;;;;;;;;;5049690;28;20582;-65
2021/10/12 10:03:33;;;;;;;9.35;6.20;;;;;;;;;;5052238;28;20070;-65
2021/10/12 10:06:10;;;;;;;12.45;6.40;;;;;;;;;;5056953;28;20053;-65
2021/10/12 10:08:56;;;;;;;14.77;6.03;;;;;;;;;;5042276;28;20085;-65
2021/10/12 10:11:42;;;;;;;11.73;5.75;;;;;;;;;;5060462;28;20409;-65
2021/10/12 10:14:10;;;;;;;9.02;4.22;;;;;;;;;;5044392;28;20476;-66
2021/10/12 10:16:37;;;;;;;9.00;3.80;;;;;;;;;;5046960;28;20056;-66
2021/10/12 10:19:06;;;;;;;7.70;3.90;;;;;;;;;;5056264;28;20052;-65
2021/10/12 10:21:36;;;;;;;10.27;3.90;;;;;;;;;;5048788;28;20285;-65
2021/10/12 10:24:13;;;;;;;8.05;2.90;;;;;;;;;;5056838;28;21418;-66
2021/10/12 10:26:40;;;;;;;6.97;2.83;;;;;;;;;;5048950;28;20053;-65
2021/10/12 10:29:21;;;;;;;6.65;2.40;;;;;;;;;;5054652;28;20151;-65
2021/10/12 10:32:15;;;;;;;3.70;2.40;;;;;;;;;;5042936;28;20057;-65
2021/10/12 10:34:43;;;;;;;11.50;3.03;;;;;;;;;;5062074;28;20052;-65
2021/10/12 10:37:15;;;;;;;7.80;2.00;;;;;;;;;;5050016;28;20056;-65
2021/10/12 10:39:52;;;;;;;4.70;1.77;;;;;;;;;;5061653;28;20075;-66
2021/10/12 10:42:27;;;;;;;4.50;2.22;;;;;;;;;;5034138;28;20052;-65
2021/10/12 10:44:54;;;;;;;6.50;1.95;;;;;;;;;;5055983;28;20049;-65
2021/10/12 10:47:39;;;;;;;6.25;1.50;;;;;;;;;;5050840;28;20051;-65
2021/10/12 10:50:12;;;;;;;4.22;1.35;;;;;;;;;;5050470;28;20056;-65
2021/10/12 10:52:43;;;;;;;5.07;1.45;;;;;;;;;;5049366;28;20056;-65
2021/10/12 10:55:10;;;;;;;5.72;1.45;;;;;;;;;;5052076;28;20492;-65
2021/10/12 10:57:37;;;;;;;3.95;1.50;;;;;;;;;;5056840;28;21149;-65
2021/10/12 11:00:12;;;;;;;5.00;1.50;;;;;;;;;;5053025;28;20045;-65
2021/10/12 11:02:44;;;;;;;3.83;1.33;;;;;;;;;;5053251;28;20522;-65
2021/10/12 11:05:28;;;;;;;3.92;1.20;;;;;;;;;;5049587;28;20128;-65
2021/10/12 11:08:11;;;;;;;3.70;1.30;;;;;;;;;;5052189;28;20050;-66
2021/10/12 11:10:39;;;;;;;4.45;1.20;;;;;;;;;;5049324;28;20513;-66
2021/10/12 11:13:05;;;;;;;5.15;1.00;;;;;;;;;;5051803;28;20083;-66
2021/10/12 11:15:32;;;;;;;3.83;0.88;;;;;;;;;;5065816;28;20131;-65
2021/10/12 11:18:04;;;;;;;4.85;1.45;;;;;;;;;;5048622;28;20052;-64
2021/10/12 11:20:41;;;;;;;3.55;1.13;;;;;;;;;;5053916;28;20053;-66
2021/10/12 11:23:08;;;;;;;2.70;0.93;;;;;;;;;;5044158;28;20055;-65
2021/10/12 11:25:36;;;;;;;1.75;0.90;;;;;;;;;;5051450;28;20082;-65
2021/10/12 11:28:06;;;;;;;2.15;0.80;;;;;;;;;;5042040;28;20485;-65
2021/10/12 11:30:35;;;;;;;2.47;0.98;;;;;;;;;;5055909;28;20053;-65
2021/10/12 11:33:02;;;;;;;1.70;0.82;;;;;;;;;;5056729;28;20048;-65
2021/10/12 11:35:36;;;;;;;3.53;0.93;;;;;;;;;;5046296;28;20053;-65
2021/10/12 11:38:03;;;;;;;2.85;0.73;;;;;;;;;;5056610;28;20051;-65
2021/10/12 11:40:30;;;;;;;1.88;0.80;;;;;;;;;;5036254;28;20060;-65
2021/10/12 11:42:58;;;;;;;3.92;0.70;;;;;;;;;;5059870;28;20054;-65
2021/10/12 11:45:26;;;;;;;0.88;0.50;;;;;;;;;;5048831;28;20044;-65
2021/10/12 11:47:52;;;;;;;6.25;0.80;;;;;;;;;;5060444;28;20048;-65
2021/10/12 11:50:19;;;;;;;2.58;0.73;;;;;;;;;;5044961;28;20072;-65
2021/10/12 11:52:50;;;;;;;5.45;1.20;;;;;;;;;;5047342;28;20232;-65
2021/10/12 11:55:17;;;;;;;7.10;1.10;;;;;;;;;;5048976;28;20565;-64
2021/10/12 11:57:46;;;;;;;3.28;0.70;;;;;;;;;;5055595;28;20091;-65
2021/10/12 12:00:12;;;;;;;;;;;;;;;;;;5063391;28;20063;-64
2021/10/12 12:02:40;;;;;;;0.40;0.30;;;;;;;;;;5056364;28;19925;-65
2021/10/12 12:05:06;;;;;;;2.90;0.80;;;;;;;;;;5043000;28;20053;-64
2021/10/12 12:07:34;;;;;;;1.20;0.68;;;;;;;;;;5054004;28;20055;-64
2021/10/12 12:10:01;;;;;;;1.92;0.50;;;;;;;;;;5046169;28;20588;-64
2021/10/12 12:12:27;;;;;;;2.75;0.60;;;;;;;;;;5055709;28;20055;-64
2021/10/12 12:14:54;;;;;;;3.90;0.50;;;;;;;;;;5055352;28;20453;-65
2021/10/12 12:17:22;;;;;;;0.68;0.40;;;;;;;;;;5062952;28;20048;-65
2021/10/12 12:19:53;;;;;;;1.30;0.40;;;;;;;;;;5040977;28;20041;-65
2021/10/12 12:22:22;;;;;;;1.50;0.52;;;;;;;;;;5060424;28;20037;-65
2021/10/12 12:24:52;;;;;;;2.13;0.70;;;;;;;;;;5054533;28;20139;-65
2021/10/12 12:27:18;;;;;;;3.95;1.48;;;;;;;;;;5055620;28;20059;-65
2021/10/12 12:29:55;;;;;;;3.22;0.80;;;;;;;;;;5059968;28;20056;-65
2021/10/12 12:32:21;;;;;;;2.17;1.00;;;;;;;;;;5057033;28;20056;-65
2021/10/12 12:34:56;;;;;;;3.53;0.80;;;;;;;;;;5055141;28;20052;-65
2021/10/12 12:37:23;;;;;;;6.00;0.82;;;;;;;;;;5065675;28;20134;-65
2021/10/12 12:39:50;;;;;;;2.40;0.70;;;;;;;;;;5057862;28;20052;-64
2021/10/12 12:42:29;;;;;;;4.88;0.63;;;;;;;;;;5050184;28;20056;-64
2021/10/12 12:45:05;;;;;;;3.17;0.50;;;;;;;;;;5049120;28;20044;-64
2021/10/12 12:47:31;;;;;;;3.95;0.60;;;;;;;;;;5061713;28;20037;-65
2021/10/12 12:50:10;;;;;;;2.75;0.52;;;;;;;;;;5049935;28;20049;-64
2021/10/12 12:52:37;;;;;;;5.30;0.70;;;;;;;;;;5067542;28;20134;-64
2021/10/12 12:55:04;;;;;;;2.40;0.50;;;;;;;;;;5048015;28;20071;-64
2021/10/12 12:57:30;;;;;;;1.92;0.65;;;;;;;;;;5064840;28;20048;-64
2021/10/12 13:00:09;;;;;;;1.50;0.50;;;;;;;;;;5052595;28;20044;-64
2021/10/12 13:02:36;;;;;;;6.38;0.80;;;;;;;;;;5060511;28;20406;-64
2021/10/12 13:05:03;;;;;;;2.17;0.83;;;;;;;;;;5058020;28;20916;-64
2021/10/12 13:07:29;;;;;;;6.53;1.48;;;;;;;;;;5063997;28;20724;-64
2021/10/12 13:09:56;;;;;;;3.03;0.70;;;;;;;;;;5066905;28;20098;-64
2021/10/12 13:12:24;;;;;;;6.05;1.77;;;;;;;;;;5059586;28;20059;-64
2021/10/12 13:14:51;;;;;;;6.75;0.82;;;;;;;;;;5065698;28;20052;-64
2021/10/12 13:17:22;;;;;;;3.55;0.75;;;;;;;;;;5057866;28;20048;-64
2021/10/12 13:19:49;;;;;;;4.47;0.80;;;;;;;;;;5053614;28;20057;-65
2021/10/12 13:22:15;;;;;;;3.40;0.55;;;;;;;;;;5065614;28;20044;-65
2021/10/12 13:24:42;;;;;;;2.63;0.52;;;;;;;;;;5054026;28;20064;-64
2021/10/12 13:27:08;;;;;;;4.82;0.60;;;;;;;;;;5065421;28;20049;-64
2021/10/12 13:29:35;;;;;;;4.38;1.40;;;;;;;;;;5042200;28;20426;-64
2021/10/12 13:32:01;;;;;;;3.50;0.60;;;;;;;;;;5070104;28;20056;-64
2021/10/12 13:34:28;;;;;;;3.03;0.70;;;;;;;;;;5054847;28;20051;-64
2021/10/12 13:36:55;;;;;;;8.73;0.98;;;;;;;;;;5068429;28;20457;-65
2021/10/12 13:39:21;;;;;;;2.40;0.50;;;;;;;;;;5049296;28;20049;-64
2021/10/12 13:41:49;;;;;;;3.83;0.60;;;;;;;;;;5061736;28;20436;-64
2021/10/12 13:44:16;;;;;;;4.53;0.75;;;;;;;;;;5056148;28;20477;-64
2021/10/12 13:46:43;;;;;;;4.28;0.68;;;;;;;;;;5060585;28;20151;-64
2021/10/12 13:49:09;;;;;;;6.93;0.75;;;;;;;;;;5064486;28;20049;-64
2021/10/12 13:51:35;;;;;;;3.53;0.80;;;;;;;;;;5053786;28;20391;-64
2021/10/12 13:54:02;;;;;;;3.60;0.82;;;;;;;;;;5053585;28;20052;-64
2021/10/12 13:56:28;;;;;;;7.57;0.80;;;;;;;;;;5052442;28;20059;-63
2021/10/12 13:58:55;;;;;;;5.72;0.75;;;;;;;;;;5049904;28;20057;-64
2021/10/12 14:01:22;;;;;;;5.97;0.90;;;;;;;;;;5063322;28;20409;-64
2021/10/12 14:03:50;;;;;;;3.00;0.80;;;;;;;;;;5055368;28;20053;-64
2021/10/12 14:06:17;;;;;;;4.38;0.73;;;;;;;;;;5062842;28;20045;-64
2021/10/12 14:08:43;;;;;;;3.33;0.70;;;;;;;;;;5042770;28;20048;-64
2021/10/12 14:11:09;;;;;;;5.75;0.88;;;;;;;;;;5054521;28;20049;-64
2021/10/12 14:13:36;;;;;;;5.35;1.08;;;;;;;;;;5052504;28;20045;-63
2021/10/12 14:16:03;;;;;;;4.32;1.15;;;;;;;;;;5049754;28;20048;-63
2021/10/12 14:18:30;;;;;;;4.80;1.05;;;;;;;;;;5063471;28;20079;-65
2021/10/12 14:20:56;;;;;;;6.90;0.90;;;;;;;;;;5047130;28;20049;-64
2021/10/12 14:23:23;;;;;;;7.18;1.20;;;;;;;;;;5063849;28;20055;-64
2021/10/12 14:25:50;;;;;;;7.13;1.00;;;;;;;;;;5051203;28;20074;-64
2021/10/12 14:28:16;;;;;;;7.47;2.60;;;;;;;;;;5054325;28;20047;-64
2021/10/12 14:30:44;;;;;;;5.30;1.17;;;;;;;;;;5064379;28;20680;-64
2021/10/12 14:33:15;;;;;;;5.15;1.02;;;;;;;;;;5052709;28;20135;-64
2021/10/12 14:35:41;;;;;;;4.53;1.10;;;;;;;;;;5060055;28;20067;-64
2021/10/12 14:38:08;;;;;;;4.93;0.88;;;;;;;;;;5042028;28;20044;-64
2021/10/12 14:40:35;;;;;;;4.10;0.80;;;;;;;;;;5065192;28;20053;-63
2021/10/12 14:43:01;;;;;;;3.47;0.80;;;;;;;;;;5042242;28;20135;-65
2021/10/12 14:45:27;;;;;;;5.00;1.25;;;;;;;;;;5060654;28;20044;-64
2021/10/12 14:47:54;;;;;;;5.82;1.20;;;;;;;;;;5054568;28;20049;-65
2021/10/12 14:50:20;;;;;;;6.95;1.45;;;;;;;;;;5049786;28;20155;-64
2021/10/12 14:52:47;;;;;;;2.83;1.00;;;;;;;;;;5046290;28;20056;-64